createdAt,value
2022-08-07T00:00:33.490Z,24.10
2022-08-07T00:03:01.332Z,24.08
2022-08-07T00:05:38.550Z,24.07
2022-08-07T00:08:08.039Z,23.89
2022-08-07T00:10:48.184Z,23.84
2022-08-07T00:13:30.662Z,23.86
2022-08-07T00:16:03.399Z,23.93
2022-08-07T00:18:31.895Z,23.91
2022-08-07T00:21:56.911Z,23.75
2022-08-07T00:24:02.544Z,23.61
2022-08-07T00:26:59.065Z,23.62
2022-08-07T00:29:26.427Z,23.57
2022-08-07T00:31:59.955Z,23.50
2022-08-07T00:34:30.676Z,23.61
2022-08-07T00:37:02.541Z,23.55
2022-08-07T00:39:54.262Z,23.43
2022-08-07T00:42:28.997Z,23.45
2022-08-07T00:44:57.967Z,23.49
2022-08-07T00:48:07.978Z,23.60
2022-08-07T00:50:33.071Z,23.42
2022-08-07T00:53:09.206Z,23.42
2022-08-07T00:56:02.139Z,23.33
2022-08-07T00:58:32.957Z,23.39
2022-08-07T01:01:04.383Z,23.33
2022-08-07T01:03:56.379Z,23.42
2022-08-07T01:06:23.218Z,23.21
2022-08-07T01:08:55.730Z,23.32
2022-08-07T01:12:09.982Z,23.38
2022-08-07T01:14:28.740Z,23.26
2022-08-07T01:17:00.543Z,23.21
2022-08-07T01:19:34.258Z,23.18
2022-08-07T01:22:22.777Z,23.24
2022-08-07T01:25:00.976Z,23.22
2022-08-07T01:27:39.428Z,23.38
2022-08-07T01:30:21.842Z,23.36
2022-08-07T01:33:02.264Z,23.30
2022-08-07T01:35:52.788Z,23.27
2022-08-07T01:38:25.769Z,23.37
2022-08-07T01:41:03.988Z,23.28
2022-08-07T01:43:38.388Z,23.29
2022-08-07T01:46:23.034Z,23.14
2022-08-07T01:49:00.122Z,23.14
2022-08-07T01:52:03.277Z,23.16
2022-08-07T01:54:32.856Z,23.21
2022-08-07T01:57:24.910Z,23.16
2022-08-07T02:00:00.648Z,23.36
2022-08-07T02:03:18.877Z,23.29
2022-08-07T02:06:02.026Z,23.13
2022-08-07T02:08:41.750Z,23.16
2022-08-07T02:11:31.010Z,23.08
2022-08-07T02:14:06.661Z,22.91
2022-08-07T02:16:50.781Z,22.88
2022-08-07T02:20:07.790Z,22.84
2022-08-07T02:22:15.381Z,22.87
2022-08-07T02:24:47.720Z,22.74
2022-08-07T02:27:23.313Z,22.61
2022-08-07T02:29:58.661Z,22.66
2022-08-07T02:32:59.994Z,22.68
2022-08-07T02:36:28.290Z,22.84
2022-08-07T02:38:22.720Z,22.79
2022-08-07T02:40:59.996Z,22.84
2022-08-07T02:43:35.139Z,22.69
2022-08-07T02:46:07.897Z,22.82
2022-08-07T02:48:47.063Z,22.75
2022-08-07T02:51:42.206Z,22.69
2022-08-07T02:54:13.772Z,22.82
2022-08-07T02:56:53.492Z,22.66
2022-08-07T02:59:41.558Z,22.70
2022-08-07T03:02:17.899Z,22.67
2022-08-07T03:04:53.750Z,22.64
2022-08-07T03:07:42.953Z,22.65
2022-08-07T03:10:36.829Z,22.71
2022-08-07T03:13:13.003Z,22.72
2022-08-07T03:15:56.716Z,22.66
2022-08-07T03:19:37.095Z,22.87
2022-08-07T03:22:04.868Z,22.85
2022-08-07T03:24:52.403Z,22.85
2022-08-07T03:27:59.574Z,22.74
2022-08-07T03:30:33.288Z,22.75
2022-08-07T03:33:10.456Z,22.69
2022-08-07T03:35:53.631Z,22.82
2022-08-07T03:38:45.394Z,22.82
2022-08-07T03:41:41.658Z,22.78
2022-08-07T03:44:35.446Z,22.83
2022-08-07T03:47:15.802Z,22.96
2022-08-07T03:49:53.597Z,22.96
2022-08-07T03:52:30.036Z,22.93
2022-08-07T03:55:20.311Z,23.03
2022-08-07T03:58:32.978Z,23.08
2022-08-07T04:00:53.345Z,23.07
2022-08-07T04:03:49.629Z,23.24
2022-08-07T04:06:37.050Z,23.34
2022-08-07T04:09:25.130Z,23.39
2022-08-07T04:12:25.604Z,23.38
2022-08-07T04:15:05.101Z,23.40
2022-08-07T04:18:57.462Z,23.52
2022-08-07T04:21:25.542Z,23.47
2022-08-07T04:24:26.890Z,23.59
2022-08-07T04:27:15.155Z,23.67
2022-08-07T04:30:04.717Z,23.95
2022-08-07T04:33:07.374Z,23.90
2022-08-07T04:35:50.181Z,23.91
2022-08-07T04:38:30.026Z,24.07
2022-08-07T04:41:03.766Z,24.31
2022-08-07T04:44:16.032Z,24.36
2022-08-07T04:47:57.159Z,24.43
2022-08-07T04:50:25.755Z,24.65
2022-08-07T04:54:05.842Z,24.62
2022-08-07T04:58:27.463Z,24.77
2022-08-07T05:00:56.107Z,24.98
2022-08-07T05:04:07.064Z,24.89
2022-08-07T05:07:19.640Z,25.10
2022-08-07T05:11:02.999Z,25.25
2022-08-07T05:14:53.190Z,25.53
2022-08-07T05:17:01.532Z,25.78
2022-08-07T05:19:45.114Z,25.90
2022-08-07T05:22:27.626Z,26.30
2022-08-07T05:25:03.423Z,26.67
2022-08-07T05:32:20.482Z,28.48
2022-08-07T05:36:07.084Z,29.53
2022-08-07T05:38:58.104Z,30.31
2022-08-07T05:41:22.524Z,30.93
2022-08-07T05:44:11.887Z,31.51
2022-08-07T05:46:52.831Z,32.30
2022-08-07T05:49:41.000Z,32.53
2022-08-07T05:52:32.614Z,32.33
2022-08-07T06:11:53.779Z,30.95
2022-08-07T06:25:36.073Z,29.38
2022-08-07T07:04:56.335Z,26.90
2022-08-07T07:48:46.307Z,29.29
2022-08-07T08:07:59.915Z,30.93
2022-08-07T08:50:08.135Z,34.73
2022-08-07T09:05:07.022Z,37.47
2022-08-07T09:08:46.946Z,37.90
2022-08-07T09:12:41.481Z,38.15
2022-08-07T11:04:49.984Z,32.21
2022-08-07T12:28:03.951Z,27.51
2022-08-07T12:52:13.808Z,27.98
2022-08-07T14:10:31.746Z,27.54
2022-08-07T14:55:55.862Z,26.57
2022-08-07T16:30:07.734Z,24.82
2022-08-07T16:47:05.594Z,24.92
2022-08-07T16:50:52.809Z,24.88
2022-08-07T16:59:45.995Z,24.67
2022-08-07T17:07:28.558Z,24.48
2022-08-07T17:20:00.690Z,24.21
2022-08-07T17:23:48.115Z,24.27
2022-08-07T17:31:16.079Z,23.98
2022-08-07T17:42:33.825Z,23.89
2022-08-07T17:52:12.903Z,23.81
2022-08-07T18:02:39.741Z,23.72
2022-08-07T18:06:02.744Z,23.77
2022-08-07T18:09:15.956Z,23.80
2022-08-07T18:12:28.700Z,23.59
2022-08-07T18:21:38.365Z,23.59
2022-08-07T18:24:12.375Z,23.59
2022-08-07T18:40:38.583Z,23.25
2022-08-07T18:50:04.701Z,23.33
2022-08-07T18:52:55.633Z,23.30
2022-08-07T19:00:36.522Z,23.11
2022-08-07T19:12:48.829Z,23.06
2022-08-07T19:16:05.779Z,23.13
2022-08-07T19:18:49.366Z,23.03
2022-08-07T19:22:04.693Z,23.14
2022-08-07T19:24:52.462Z,23.11
2022-08-07T19:36:13.124Z,22.94
2022-08-07T19:39:56.966Z,23.17
2022-08-07T19:43:00.583Z,22.92
2022-08-07T19:46:05.959Z,22.97
2022-08-07T19:49:57.209Z,22.96
2022-08-07T19:52:22.536Z,22.94
2022-08-07T19:54:58.209Z,22.79
2022-08-07T19:58:15.849Z,22.75
2022-08-07T20:00:55.569Z,22.85
2022-08-07T20:03:33.672Z,22.84
2022-08-07T20:06:15.449Z,22.80
2022-08-07T20:09:03.039Z,22.97
2022-08-07T20:15:57.592Z,22.81
2022-08-07T20:18:35.711Z,22.83
2022-08-07T20:21:21.422Z,22.92
2022-08-07T20:24:06.232Z,23.02
2022-08-07T20:26:52.403Z,23.01
2022-08-07T20:30:00.196Z,23.00
2022-08-07T20:32:52.846Z,22.74
2022-08-07T20:35:36.585Z,22.57
2022-08-07T20:39:11.702Z,22.70
2022-08-07T20:41:54.332Z,22.78
2022-08-07T20:44:31.724Z,22.66
2022-08-07T20:47:11.299Z,22.43
2022-08-07T20:49:59.336Z,22.28
2022-08-07T20:52:51.232Z,22.25
2022-08-07T20:55:25.529Z,22.15
2022-08-07T20:58:03.369Z,21.90
2022-08-07T21:00:42.170Z,21.52
2022-08-07T21:03:16.600Z,21.36
2022-08-07T21:06:21.577Z,21.18
2022-08-07T21:09:07.551Z,21.14
2022-08-07T21:11:53.315Z,21.03
2022-08-07T21:14:32.884Z,21.08
2022-08-07T21:18:01.876Z,21.01
2022-08-07T21:20:10.050Z,21.04
2022-08-07T21:22:53.247Z,20.86
2022-08-07T21:25:39.262Z,20.68
2022-08-07T21:28:19.019Z,20.67
2022-08-07T21:31:49.555Z,20.78
2022-08-07T21:34:34.642Z,20.76
2022-08-07T21:37:26.447Z,20.79
2022-08-07T21:40:39.816Z,20.60
2022-08-07T21:43:22.801Z,20.59
2022-08-07T21:46:32.275Z,20.67
2022-08-07T21:49:18.427Z,20.66
2022-08-07T21:52:14.214Z,20.60
2022-08-07T21:55:00.893Z,20.67
2022-08-07T21:57:52.336Z,20.54
2022-08-07T22:00:25.478Z,20.61
2022-08-07T22:03:16.817Z,20.62
2022-08-07T22:05:51.885Z,20.59
2022-08-07T22:13:03.727Z,20.40
2022-08-07T22:16:42.806Z,20.67
2022-08-07T22:19:08.776Z,20.66
2022-08-07T22:22:02.291Z,20.68
2022-08-07T22:24:56.789Z,20.68
2022-08-07T22:28:03.229Z,20.77
2022-08-07T22:30:26.454Z,20.66
2022-08-07T22:33:09.219Z,20.84
2022-08-07T22:35:57.782Z,20.85
2022-08-07T22:38:53.079Z,20.79
2022-08-07T22:42:03.196Z,20.70
2022-08-07T22:44:29.075Z,20.91
2022-08-07T22:47:17.024Z,20.94
2022-08-07T22:49:54.849Z,21.01
2022-08-07T22:52:37.577Z,21.02
2022-08-07T22:55:29.702Z,21.15
2022-08-07T22:58:08.681Z,21.01
2022-08-07T23:00:53.072Z,21.19
2022-08-07T23:03:58.529Z,21.00
2022-08-07T23:06:52.046Z,21.00
2022-08-07T23:10:05.191Z,21.00
2022-08-07T23:12:34.449Z,20.81
2022-08-07T23:16:06.991Z,20.91
2022-08-07T23:19:15.777Z,20.82
2022-08-07T23:21:55.310Z,20.82
2022-08-07T23:24:50.482Z,21.05
2022-08-07T23:27:33.606Z,20.99
2022-08-07T23:30:39.357Z,20.92
2022-08-07T23:34:34.749Z,20.80
2022-08-07T23:36:30.309Z,20.94
2022-08-07T23:39:21.946Z,21.13
2022-08-07T23:42:24.004Z,21.13
2022-08-07T23:45:50.189Z,20.95
2022-08-07T23:48:37.782Z,20.86
2022-08-07T23:52:59.919Z,20.85
2022-08-07T23:55:04.670Z,20.82
2022-08-07T23:57:44.794Z,20.59
